EGV38H EDDM-EBBR
Flight info
| Callsign | EGV38H |
|---|---|
| Flight time | 1h 1m |
| Altitude | 32000 |
| Route | GIVMI6E GIVMI Y101 INBED DCT REKDI DCT OSBIT DCT TEKTU DCT TESGA DCT UMUPU T880 BATTY |
| Aircraft | A320/M-SDE3FGHIRWY/LB1 |
Departure
| Time | 2026-05-08 05:21 |
|---|---|
| Airport | Munich Airport (EDDM) |
Arrival
| Time | 2026-05-08 06:23 |
|---|---|
| Airport | Brussels Airport (EBBR) |
| Time | Latitude | Longitude | Altitude | Speed | Heading |
|---|---|---|---|---|---|
| 2026-05-08 04:44 | 48.35635 | 11.79266 | 1461 ft | 0 kts | 263° |
| 2026-05-08 05:09 | 48.35637 | 11.79292 | 1459 ft | 4 kts | 264° |
| 2026-05-08 05:09 | 48.35640 | 11.79332 | 1462 ft | 4 kts | 264° |
| 2026-05-08 05:09 | 48.35643 | 11.79372 | 1461 ft | 4 kts | 259° |
| 2026-05-08 05:09 | 48.35651 | 11.79409 | 1456 ft | 4 kts | 226° |
| 2026-05-08 05:10 | 48.35661 | 11.79419 | 1457 ft | 0 kts | 174° |
| 2026-05-08 05:13 | 48.35644 | 11.79422 | 1458 ft | 7 kts | 173° |
| 2026-05-08 05:13 | 48.35563 | 11.79436 | 1459 ft | 15 kts | 174° |
| 2026-05-08 05:13 | 48.35426 | 11.79458 | 1464 ft | 24 kts | 175° |
| 2026-05-08 05:13 | 48.35260 | 11.79488 | 1465 ft | 25 kts | 173° |
| 2026-05-08 05:14 | 48.35085 | 11.79519 | 1461 ft | 26 kts | 173° |
| 2026-05-08 05:14 | 48.34906 | 11.79550 | 1459 ft | 25 kts | 174° |
| 2026-05-08 05:14 | 48.34790 | 11.79500 | 1464 ft | 17 kts | 261° |
| 2026-05-08 05:14 | 48.34773 | 11.79333 | 1461 ft | 16 kts | 264° |
| 2026-05-08 05:15 | 48.34760 | 11.79167 | 1467 ft | 16 kts | 263° |
| 2026-05-08 05:15 | 48.34746 | 11.78987 | 1467 ft | 19 kts | 263° |
| 2026-05-08 05:15 | 48.34738 | 11.78892 | 1457 ft | 20 kts | 263° |
| 2026-05-08 05:15 | 48.34722 | 11.78677 | 1460 ft | 22 kts | 263° |
| 2026-05-08 05:16 | 48.34704 | 11.78444 | 1467 ft | 23 kts | 264° |
| 2026-05-08 05:16 | 48.34686 | 11.78205 | 1464 ft | 24 kts | 263° |
| 2026-05-08 05:16 | 48.34667 | 11.77954 | 1466 ft | 25 kts | 263° |
| 2026-05-08 05:16 | 48.34647 | 11.77693 | 1467 ft | 25 kts | 264° |
| 2026-05-08 05:17 | 48.34627 | 11.77425 | 1466 ft | 26 kts | 263° |
| 2026-05-08 05:17 | 48.34605 | 11.77147 | 1466 ft | 27 kts | 263° |
| 2026-05-08 05:17 | 48.34583 | 11.76863 | 1462 ft | 28 kts | 263° |
| 2026-05-08 05:17 | 48.34561 | 11.76573 | 1464 ft | 28 kts | 263° |
| 2026-05-08 05:18 | 48.34538 | 11.76278 | 1466 ft | 29 kts | 263° |
| 2026-05-08 05:18 | 48.34516 | 11.75982 | 1466 ft | 29 kts | 264° |
| 2026-05-08 05:18 | 48.34493 | 11.75677 | 1460 ft | 29 kts | 263° |
| 2026-05-08 05:18 | 48.34466 | 11.75369 | 1466 ft | 30 kts | 263° |
| 2026-05-08 05:19 | 48.34445 | 11.75067 | 1466 ft | 21 kts | 263° |
| 2026-05-08 05:19 | 48.34357 | 11.74913 | 1466 ft | 20 kts | 186° |
| 2026-05-08 05:19 | 48.34215 | 11.74936 | 1463 ft | 21 kts | 158° |
| 2026-05-08 05:19 | 48.34114 | 11.75090 | 1460 ft | 21 kts | 128° |
| 2026-05-08 05:20 | 48.34083 | 11.75295 | 1474 ft | 20 kts | 85° |
| 2026-05-08 05:20 | 48.34105 | 11.75613 | 1472 ft | 56 kts | 83° |
| 2026-05-08 05:20 | 48.34175 | 11.76517 | 1465 ft | 118 kts | 83° |
| 2026-05-08 05:20 | 48.34289 | 11.77996 | 1473 ft | 165 kts | 83° |
| 2026-05-08 05:21 | 48.34437 | 11.79738 | 2055 ft | 168 kts | 82° |
| 2026-05-08 05:21 | 48.34585 | 11.81476 | 2776 ft | 169 kts | 83° |
| 2026-05-08 05:21 | 48.34720 | 11.83243 | 3406 ft | 174 kts | 84° |
| 2026-05-08 05:21 | 48.34942 | 11.85142 | 3697 ft | 197 kts | 67° |
| 2026-05-08 05:22 | 48.35941 | 11.86655 | 3958 ft | 221 kts | 21° |
| 2026-05-08 05:22 | 48.37520 | 11.87112 | 4310 ft | 245 kts | 2° |
| 2026-05-08 05:22 | 48.39252 | 11.86670 | 4789 ft | 262 kts | 331° |
| 2026-05-08 05:22 | 48.40655 | 11.84921 | 5567 ft | 266 kts | 310° |
| 2026-05-08 05:23 | 48.41881 | 11.82856 | 6466 ft | 268 kts | 311° |
| 2026-05-08 05:23 | 48.43169 | 11.80836 | 7338 ft | 269 kts | 313° |
| 2026-05-08 05:23 | 48.44496 | 11.78820 | 8200 ft | 272 kts | 313° |
| 2026-05-08 05:23 | 48.45841 | 11.76798 | 9066 ft | 274 kts | 313° |
| 2026-05-08 05:24 | 48.47192 | 11.74764 | 9920 ft | 276 kts | 312° |
| 2026-05-08 05:24 | 48.48554 | 11.72704 | 10699 ft | 279 kts | 312° |
| 2026-05-08 05:24 | 48.49935 | 11.70607 | 11421 ft | 283 kts | 312° |
| 2026-05-08 05:24 | 48.51330 | 11.68476 | 12150 ft | 287 kts | 312° |
| 2026-05-08 05:25 | 48.52740 | 11.66317 | 12890 ft | 291 kts | 312° |
| 2026-05-08 05:25 | 48.54171 | 11.64123 | 13609 ft | 295 kts | 312° |
| 2026-05-08 05:25 | 48.55618 | 11.61902 | 14268 ft | 299 kts | 312° |
| 2026-05-08 05:25 | 48.57062 | 11.59681 | 14896 ft | 302 kts | 311° |
| 2026-05-08 05:26 | 48.58518 | 11.57282 | 15159 ft | 320 kts | 309° |
| 2026-05-08 05:26 | 48.60011 | 11.54650 | 15288 ft | 340 kts | 308° |
| 2026-05-08 05:26 | 48.61571 | 11.51817 | 15415 ft | 359 kts | 308° |
| 2026-05-08 05:26 | 48.63202 | 11.48842 | 15553 ft | 377 kts | 308° |
| 2026-05-08 05:27 | 48.64903 | 11.45757 | 15898 ft | 386 kts | 308° |
| 2026-05-08 05:27 | 48.66636 | 11.42640 | 16384 ft | 390 kts | 308° |
| 2026-05-08 05:27 | 48.68397 | 11.39497 | 16920 ft | 393 kts | 308° |
| 2026-05-08 05:27 | 48.70299 | 11.36479 | 17441 ft | 399 kts | 317° |
| 2026-05-08 05:28 | 48.72553 | 11.33992 | 17964 ft | 403 kts | 324° |
| 2026-05-08 05:28 | 48.74864 | 11.31676 | 18475 ft | 406 kts | 324° |
| 2026-05-08 05:28 | 48.77231 | 11.29290 | 18895 ft | 410 kts | 324° |
| 2026-05-08 05:28 | 48.79604 | 11.26888 | 19344 ft | 412 kts | 324° |
| 2026-05-08 05:29 | 48.82001 | 11.24452 | 19817 ft | 415 kts | 324° |
| 2026-05-08 05:29 | 48.84483 | 11.22190 | 20251 ft | 419 kts | 331° |
| 2026-05-08 05:29 | 48.87192 | 11.20538 | 20690 ft | 424 kts | 339° |
| 2026-05-08 05:29 | 48.90004 | 11.19132 | 21129 ft | 426 kts | 339° |
| 2026-05-08 05:30 | 48.92833 | 11.17710 | 21557 ft | 429 kts | 339° |
| 2026-05-08 05:30 | 48.95670 | 11.16274 | 21980 ft | 431 kts | 339° |
| 2026-05-08 05:30 | 48.98488 | 11.14840 | 22384 ft | 433 kts | 339° |
| 2026-05-08 05:30 | 49.01345 | 11.13381 | 22787 ft | 436 kts | 339° |
| 2026-05-08 05:31 | 49.04277 | 11.11883 | 23181 ft | 438 kts | 339° |
| 2026-05-08 05:31 | 49.07130 | 11.10422 | 23571 ft | 441 kts | 339° |
| 2026-05-08 05:31 | 49.10045 | 11.08929 | 23923 ft | 443 kts | 339° |
| 2026-05-08 05:31 | 49.12979 | 11.07428 | 24266 ft | 445 kts | 339° |
| 2026-05-08 05:32 | 49.15920 | 11.05926 | 24613 ft | 446 kts | 339° |
| 2026-05-08 05:32 | 49.18867 | 11.04420 | 24945 ft | 448 kts | 339° |
| 2026-05-08 05:32 | 49.21826 | 11.02909 | 25269 ft | 449 kts | 339° |
| 2026-05-08 05:32 | 49.24803 | 11.01383 | 25578 ft | 451 kts | 339° |
| 2026-05-08 05:33 | 49.27777 | 10.99853 | 25858 ft | 453 kts | 339° |
| 2026-05-08 05:33 | 49.30732 | 10.98323 | 26153 ft | 454 kts | 339° |
| 2026-05-08 05:33 | 49.33724 | 10.96752 | 26442 ft | 455 kts | 336° |
| 2026-05-08 05:33 | 49.36581 | 10.94729 | 26719 ft | 453 kts | 328° |
| 2026-05-08 05:34 | 49.39209 | 10.92048 | 26997 ft | 452 kts | 319° |
| 2026-05-08 05:34 | 49.41520 | 10.88806 | 27330 ft | 449 kts | 310° |
| 2026-05-08 05:34 | 49.43517 | 10.85143 | 27731 ft | 446 kts | 307° |
| 2026-05-08 05:34 | 49.45465 | 10.81438 | 28140 ft | 445 kts | 307° |
| 2026-05-08 05:35 | 49.47409 | 10.77757 | 28590 ft | 444 kts | 307° |
| 2026-05-08 05:35 | 49.49354 | 10.74078 | 28991 ft | 442 kts | 307° |
| 2026-05-08 05:35 | 49.51290 | 10.70409 | 29402 ft | 441 kts | 307° |
| 2026-05-08 05:35 | 49.53198 | 10.66784 | 29804 ft | 440 kts | 307° |
| 2026-05-08 05:36 | 49.55120 | 10.63128 | 30206 ft | 439 kts | 307° |
| 2026-05-08 05:36 | 49.57031 | 10.59484 | 30559 ft | 438 kts | 307° |
| 2026-05-08 05:36 | 49.58939 | 10.55831 | 30910 ft | 436 kts | 307° |
| 2026-05-08 05:36 | 49.60833 | 10.52196 | 31260 ft | 435 kts | 306° |
| 2026-05-08 05:37 | 49.62728 | 10.48561 | 31615 ft | 434 kts | 306° |
| 2026-05-08 05:37 | 49.64618 | 10.44937 | 31963 ft | 432 kts | 306° |
| 2026-05-08 05:37 | 49.66626 | 10.41478 | 32109 ft | 435 kts | 312° |
| 2026-05-08 05:38 | 49.70924 | 10.34826 | 32122 ft | 439 kts | 312° |
| 2026-05-08 05:38 | 49.75244 | 10.28145 | 32124 ft | 440 kts | 313° |
| 2026-05-08 05:39 | 49.79537 | 10.21478 | 32121 ft | 440 kts | 312° |
| 2026-05-08 05:39 | 49.83848 | 10.14757 | 32116 ft | 440 kts | 312° |
| 2026-05-08 05:40 | 49.88154 | 10.08019 | 32115 ft | 440 kts | 312° |
| 2026-05-08 05:40 | 49.92456 | 10.01271 | 32103 ft | 440 kts | 312° |
| 2026-05-08 05:41 | 49.96748 | 9.94510 | 32098 ft | 440 kts | 312° |
| 2026-05-08 05:41 | 50.01014 | 9.87781 | 32109 ft | 440 kts | 312° |
| 2026-05-08 05:42 | 50.05302 | 9.81002 | 32092 ft | 440 kts | 312° |
| 2026-05-08 05:42 | 50.09038 | 9.73564 | 32092 ft | 436 kts | 302° |
| 2026-05-08 05:43 | 50.12367 | 9.65740 | 32097 ft | 436 kts | 302° |
| 2026-05-08 05:43 | 50.15698 | 9.57880 | 32093 ft | 436 kts | 301° |
| 2026-05-08 05:44 | 50.19058 | 9.49927 | 32089 ft | 437 kts | 301° |
| 2026-05-08 05:44 | 50.22398 | 9.42024 | 32099 ft | 437 kts | 301° |
| 2026-05-08 05:45 | 50.25739 | 9.34098 | 32105 ft | 437 kts | 301° |
| 2026-05-08 05:45 | 50.29043 | 9.26206 | 32115 ft | 436 kts | 301° |
| 2026-05-08 05:46 | 50.32353 | 9.18254 | 32113 ft | 437 kts | 301° |
| 2026-05-08 05:46 | 50.35050 | 9.09797 | 32116 ft | 433 kts | 287° |
| 2026-05-08 05:47 | 50.36540 | 9.02322 | 32104 ft | 434 kts | 286° |
| 2026-05-08 05:47 | 50.38332 | 8.93301 | 32105 ft | 434 kts | 286° |
| 2026-05-08 05:48 | 50.40405 | 8.82796 | 32111 ft | 434 kts | 286° |
| 2026-05-08 05:48 | 50.41896 | 8.75231 | 32107 ft | 434 kts | 286° |
| 2026-05-08 05:49 | 50.43946 | 8.64714 | 32121 ft | 434 kts | 285° |
| 2026-05-08 05:49 | 50.44984 | 8.57034 | 32120 ft | 433 kts | 278° |
| 2026-05-08 05:50 | 50.45910 | 8.47701 | 32117 ft | 433 kts | 278° |
| 2026-05-08 05:50 | 50.46837 | 8.38370 | 32118 ft | 433 kts | 278° |
| 2026-05-08 05:51 | 50.47913 | 8.27527 | 32119 ft | 433 kts | 278° |
| 2026-05-08 05:51 | 50.48684 | 8.19686 | 32117 ft | 433 kts | 278° |
| 2026-05-08 05:52 | 50.49589 | 8.10394 | 32113 ft | 434 kts | 278° |
| 2026-05-08 05:52 | 50.50490 | 8.01018 | 32111 ft | 434 kts | 277° |
| 2026-05-08 05:53 | 50.51372 | 7.91646 | 32108 ft | 434 kts | 277° |
| 2026-05-08 05:53 | 50.52254 | 7.82273 | 32112 ft | 434 kts | 277° |
| 2026-05-08 05:54 | 50.53135 | 7.72892 | 32106 ft | 434 kts | 277° |
| 2026-05-08 05:54 | 50.53997 | 7.63574 | 32106 ft | 434 kts | 277° |
| 2026-05-08 05:55 | 50.54852 | 7.54184 | 32105 ft | 434 kts | 277° |
| 2026-05-08 05:55 | 50.55702 | 7.44802 | 32099 ft | 434 kts | 276° |
| 2026-05-08 05:56 | 50.55937 | 7.35350 | 32093 ft | 433 kts | 270° |
| 2026-05-08 05:56 | 50.56005 | 7.25872 | 32082 ft | 433 kts | 270° |
| 2026-05-08 05:57 | 50.56058 | 7.16478 | 32075 ft | 433 kts | 269° |
| 2026-05-08 05:57 | 50.55933 | 7.07005 | 32076 ft | 433 kts | 267° |
| 2026-05-08 05:58 | 50.55659 | 6.97554 | 32086 ft | 433 kts | 266° |
| 2026-05-08 05:58 | 50.55398 | 6.88087 | 32084 ft | 433 kts | 267° |
| 2026-05-08 05:59 | 50.55166 | 6.78690 | 32083 ft | 433 kts | 267° |
| 2026-05-08 05:59 | 50.55060 | 6.69229 | 32089 ft | 434 kts | 273° |
| 2026-05-08 06:00 | 50.56082 | 6.59875 | 32088 ft | 435 kts | 279° |
| 2026-05-08 06:00 | 50.57213 | 6.50523 | 32093 ft | 435 kts | 279° |
| 2026-05-08 06:01 | 50.58321 | 6.41181 | 32087 ft | 435 kts | 279° |
| 2026-05-08 06:01 | 50.59424 | 6.31882 | 32073 ft | 435 kts | 279° |
| 2026-05-08 06:02 | 50.60542 | 6.22503 | 32073 ft | 435 kts | 279° |
| 2026-05-08 06:02 | 50.61651 | 6.13139 | 32070 ft | 435 kts | 279° |
| 2026-05-08 06:03 | 50.62737 | 6.03851 | 32104 ft | 433 kts | 278° |
| 2026-05-08 06:03 | 50.63815 | 5.94541 | 32103 ft | 432 kts | 278° |
| 2026-05-08 06:04 | 50.65070 | 5.85301 | 32094 ft | 433 kts | 286° |
| 2026-05-08 06:04 | 50.67573 | 5.76653 | 32092 ft | 435 kts | 295° |
| 2026-05-08 06:05 | 50.70320 | 5.68161 | 32056 ft | 435 kts | 294° |
| 2026-05-08 06:05 | 50.71670 | 5.63960 | 31101 ft | 440 kts | 295° |
| 2026-05-08 06:05 | 50.73067 | 5.59594 | 29662 ft | 447 kts | 295° |
| 2026-05-08 06:05 | 50.74470 | 5.55194 | 27610 ft | 453 kts | 295° |
| 2026-05-08 06:06 | 50.75889 | 5.50726 | 25585 ft | 458 kts | 295° |
| 2026-05-08 06:06 | 50.77320 | 5.46213 | 23632 ft | 463 kts | 295° |
| 2026-05-08 06:06 | 50.78762 | 5.41671 | 22036 ft | 455 kts | 295° |
| 2026-05-08 06:06 | 50.80167 | 5.37256 | 20647 ft | 444 kts | 295° |
| 2026-05-08 06:07 | 50.81538 | 5.32947 | 19284 ft | 435 kts | 295° |
| 2026-05-08 06:07 | 50.82881 | 5.28706 | 17916 ft | 428 kts | 295° |
| 2026-05-08 06:07 | 50.84181 | 5.24580 | 16497 ft | 421 kts | 295° |
| 2026-05-08 06:07 | 50.85471 | 5.20474 | 15149 ft | 414 kts | 295° |
| 2026-05-08 06:08 | 50.86739 | 5.16430 | 13873 ft | 407 kts | 295° |
| 2026-05-08 06:08 | 50.87987 | 5.12457 | 12488 ft | 401 kts | 296° |
| 2026-05-08 06:08 | 50.89222 | 5.08560 | 11328 ft | 390 kts | 296° |
| 2026-05-08 06:08 | 50.90431 | 5.04754 | 10134 ft | 384 kts | 296° |
| 2026-05-08 06:09 | 50.91592 | 5.01105 | 9786 ft | 356 kts | 296° |
| 2026-05-08 06:09 | 50.92661 | 4.97760 | 9599 ft | 326 kts | 296° |
| 2026-05-08 06:09 | 50.93645 | 4.94686 | 9464 ft | 301 kts | 296° |
| 2026-05-08 06:09 | 50.94556 | 4.91840 | 9089 ft | 287 kts | 296° |
| 2026-05-08 06:10 | 50.95456 | 4.89010 | 8510 ft | 282 kts | 296° |
| 2026-05-08 06:10 | 50.96314 | 4.86287 | 7891 ft | 279 kts | 296° |
| 2026-05-08 06:10 | 50.97172 | 4.83543 | 7259 ft | 276 kts | 296° |
| 2026-05-08 06:10 | 50.98018 | 4.80814 | 6619 ft | 274 kts | 296° |
| 2026-05-08 06:11 | 50.98840 | 4.78109 | 5963 ft | 272 kts | 295° |
| 2026-05-08 06:11 | 50.99368 | 4.75275 | 5482 ft | 266 kts | 274° |
| 2026-05-08 06:11 | 50.99169 | 4.72348 | 5358 ft | 270 kts | 250° |
| 2026-05-08 06:11 | 50.98385 | 4.69640 | 5239 ft | 270 kts | 242° |
| 2026-05-08 06:12 | 50.97536 | 4.66985 | 5126 ft | 269 kts | 242° |
| 2026-05-08 06:12 | 50.96694 | 4.64382 | 4999 ft | 269 kts | 242° |
| 2026-05-08 06:12 | 50.95841 | 4.61743 | 4879 ft | 268 kts | 242° |
| 2026-05-08 06:12 | 50.94990 | 4.59119 | 4733 ft | 268 kts | 242° |
| 2026-05-08 06:13 | 50.94137 | 4.56488 | 4614 ft | 267 kts | 242° |
| 2026-05-08 06:13 | 50.93292 | 4.53882 | 4465 ft | 267 kts | 242° |
| 2026-05-08 06:13 | 50.92439 | 4.51263 | 4350 ft | 266 kts | 242° |
| 2026-05-08 06:13 | 50.91589 | 4.48656 | 4216 ft | 266 kts | 242° |
| 2026-05-08 06:14 | 50.90743 | 4.46059 | 4085 ft | 265 kts | 242° |
| 2026-05-08 06:14 | 50.89899 | 4.43463 | 3964 ft | 265 kts | 242° |
| 2026-05-08 06:14 | 50.89055 | 4.40868 | 3831 ft | 264 kts | 242° |
| 2026-05-08 06:14 | 50.88215 | 4.38290 | 3702 ft | 264 kts | 242° |
| 2026-05-08 06:15 | 50.87385 | 4.35744 | 3592 ft | 263 kts | 242° |
| 2026-05-08 06:15 | 50.86548 | 4.33169 | 3460 ft | 263 kts | 242° |
| 2026-05-08 06:15 | 50.85710 | 4.30598 | 3327 ft | 262 kts | 242° |
| 2026-05-08 06:15 | 50.84870 | 4.28032 | 2995 ft | 263 kts | 242° |
| 2026-05-08 06:16 | 50.84031 | 4.25476 | 2619 ft | 259 kts | 242° |
| 2026-05-08 06:16 | 50.83226 | 4.23025 | 2555 ft | 244 kts | 242° |
| 2026-05-08 06:16 | 50.82354 | 4.20838 | 2489 ft | 228 kts | 221° |
| 2026-05-08 06:16 | 50.80997 | 4.19837 | 2435 ft | 210 kts | 182° |
| 2026-05-08 06:17 | 50.78810 | 4.21927 | 2360 ft | 185 kts | 111° |
| 2026-05-08 06:17 | 50.78668 | 4.23794 | 2316 ft | 165 kts | 81° |
| 2026-05-08 06:17 | 50.79088 | 4.25356 | 2294 ft | 150 kts | 53° |
| 2026-05-08 06:18 | 50.79852 | 4.26434 | 2253 ft | 146 kts | 38° |
| 2026-05-08 06:18 | 50.80662 | 4.27390 | 2214 ft | 144 kts | 38° |
| 2026-05-08 06:18 | 50.81462 | 4.28336 | 2184 ft | 143 kts | 38° |
| 2026-05-08 06:18 | 50.82257 | 4.29278 | 2154 ft | 143 kts | 38° |
| 2026-05-08 06:19 | 50.83057 | 4.30227 | 2118 ft | 143 kts | 38° |
| 2026-05-08 06:19 | 50.83855 | 4.31169 | 2089 ft | 143 kts | 38° |
| 2026-05-08 06:19 | 50.84655 | 4.32113 | 2055 ft | 143 kts | 38° |
| 2026-05-08 06:19 | 50.85367 | 4.33171 | 2022 ft | 142 kts | 55° |
| 2026-05-08 06:20 | 50.85784 | 4.34568 | 1989 ft | 141 kts | 73° |
| 2026-05-08 06:20 | 50.86112 | 4.36046 | 1782 ft | 142 kts | 70° |
| 2026-05-08 06:20 | 50.86452 | 4.37500 | 1547 ft | 140 kts | 71° |
| 2026-05-08 06:20 | 50.86784 | 4.38942 | 1361 ft | 139 kts | 70° |
| 2026-05-08 06:21 | 50.87122 | 4.40377 | 1223 ft | 139 kts | 70° |
| 2026-05-08 06:21 | 50.87462 | 4.41804 | 1037 ft | 138 kts | 70° |
| 2026-05-08 06:21 | 50.87802 | 4.43221 | 848 ft | 137 kts | 70° |
| 2026-05-08 06:21 | 50.88145 | 4.44612 | 666 ft | 138 kts | 70° |
| 2026-05-08 06:22 | 50.88451 | 4.46045 | 492 ft | 138 kts | 71° |
| 2026-05-08 06:22 | 50.88778 | 4.47470 | 279 ft | 138 kts | 70° |
| 2026-05-08 06:22 | 50.89100 | 4.48880 | 150 ft | 129 kts | 70° |
| 2026-05-08 06:22 | 50.89360 | 4.50012 | 150 ft | 86 kts | 70° |
| 2026-05-08 06:23 | 50.89505 | 4.50645 | 145 ft | 37 kts | 70° |
| 2026-05-08 06:23 | 50.89582 | 4.50968 | 145 ft | 23 kts | 69° |
| 2026-05-08 06:23 | 50.89659 | 4.51031 | 149 ft | 9 kts | 302° |
| 2026-05-08 06:23 | 50.89681 | 4.50959 | 151 ft | 5 kts | 300° |
| 2026-05-08 06:24 | 50.89694 | 4.50926 | 151 ft | 2 kts | 301° |
| 2026-05-08 06:24 | 50.89698 | 4.50916 | 151 ft | 0 kts | 301° |
| 2026-05-08 06:24 | 50.89712 | 4.50879 | 152 ft | 9 kts | 301° |
| 2026-05-08 06:25 | 50.89745 | 4.50791 | 152 ft | 8 kts | 301° |
| 2026-05-08 06:25 | 50.89777 | 4.50706 | 155 ft | 14 kts | 300° |
| 2026-05-08 06:25 | 50.89842 | 4.50528 | 153 ft | 21 kts | 301° |
| 2026-05-08 06:25 | 50.89919 | 4.50319 | 151 ft | 23 kts | 300° |
| 2026-05-08 06:26 | 50.90012 | 4.50061 | 138 ft | 30 kts | 300° |
| 2026-05-08 06:26 | 50.90098 | 4.49829 | 134 ft | 12 kts | 300° |
| 2026-05-08 06:26 | 50.90121 | 4.49724 | 136 ft | 12 kts | 273° |
| 2026-05-08 06:26 | 50.90084 | 4.49574 | 137 ft | 15 kts | 241° |
| 2026-05-08 06:27 | 50.90060 | 4.49506 | 139 ft | 0 kts | 240° |
| 2026-05-08 06:27 | 50.90058 | 4.49501 | 139 ft | 6 kts | 240° |
| 2026-05-08 06:27 | 50.89991 | 4.49290 | 143 ft | 20 kts | 242° |
| 2026-05-08 06:27 | 50.89956 | 4.49143 | 145 ft | 13 kts | 246° |
| 2026-05-08 06:28 | 50.89896 | 4.48942 | 147 ft | 32 kts | 245° |
| 2026-05-08 06:28 | 50.89867 | 4.48843 | 147 ft | 4 kts | 245° |
| 2026-05-08 06:28 | 50.89830 | 4.48710 | 147 ft | 13 kts | 269° |
| 2026-05-08 06:28 | 50.89859 | 4.48652 | 147 ft | 2 kts | 330° |
| 2026-05-08 06:29 | 50.89880 | 4.48626 | 147 ft | 5 kts | 334° |
| 2026-05-08 06:29 | 50.89900 | 4.48619 | 146 ft | 0 kts | 334° |
| 2026-05-08 06:29 | 50.89907 | 4.48612 | 146 ft | 1 kts | 335° |
| 2026-05-08 06:29 | 50.89913 | 4.48608 | 146 ft | 0 kts | 336° |